createdAt,value
2022-12-17T00:00:12.812Z,29.8
2022-12-17T00:05:52.502Z,29.7
2022-12-17T00:11:18.739Z,29.6
2022-12-17T00:16:46.860Z,29.6
2022-12-17T00:22:29.214Z,29.6
2022-12-17T00:27:56.673Z,29.6
2022-12-17T00:33:36.557Z,29.6
2022-12-17T00:39:14.812Z,29.5
2022-12-17T00:44:40.867Z,29.5
2022-12-17T00:50:04.069Z,29.4
2022-12-17T00:55:29.436Z,29.4
2022-12-17T01:01:12.984Z,29.4
2022-12-17T01:06:22.262Z,29.4
2022-12-17T01:12:02.300Z,29.3
2022-12-17T01:17:29.533Z,29.4
2022-12-17T01:22:53.836Z,29.3
2022-12-17T01:28:35.936Z,29.3
2022-12-17T01:34:21.131Z,29.3
2022-12-17T01:39:58.638Z,29.2
2022-12-17T01:45:36.859Z,29.2
2022-12-17T01:51:15.557Z,29.2
2022-12-17T01:56:37.745Z,29.1
2022-12-17T02:01:44.230Z,29.1
2022-12-17T02:07:07.997Z,29.3
2022-12-17T02:12:29.321Z,29.8
2022-12-17T02:17:52.308Z,30.3
2022-12-17T02:23:30.534Z,30.8
2022-12-17T02:28:52.654Z,31.4
2022-12-17T02:34:30.430Z,31.9
2022-12-17T02:40:11.897Z,32.4
2022-12-17T02:45:49.548Z,32.9
2022-12-17T02:51:11.240Z,33.4
2022-12-17T02:56:33.916Z,34
2022-12-17T03:02:14.757Z,34.5
2022-12-17T03:08:28.424Z,35.1
2022-12-17T03:14:08.107Z,35.4
2022-12-17T03:19:45.923Z,35.7
2022-12-17T03:25:23.973Z,35.9
2022-12-17T03:31:07.688Z,36.1
2022-12-17T03:36:30.586Z,36.3
2022-12-17T03:42:06.911Z,36.4
2022-12-17T03:47:45.052Z,36.5
2022-12-17T03:53:06.196Z,36.6
2022-12-17T03:58:43.454Z,36.6
2022-12-17T04:04:24.134Z,36.7
2022-12-17T04:10:07.419Z,36.8
2022-12-17T04:15:50.761Z,36.8
2022-12-17T04:21:29.454Z,36.8
2022-12-17T04:26:50.141Z,36.8
2022-12-17T04:32:30.059Z,36.8
2022-12-17T04:38:12.352Z,36.8
2022-12-17T04:43:50.171Z,36.9
2022-12-17T04:49:27.497Z,36.9
2022-12-17T04:54:50.511Z,36.9
2022-12-17T05:00:27.558Z,36.9
2022-12-17T05:05:51.441Z,36.9
2022-12-17T05:11:30.362Z,36.9
2022-12-17T05:17:15.067Z,36.9
2022-12-17T05:22:55.985Z,36.8
2022-12-17T05:28:36.302Z,36.8
2022-12-17T05:34:19.225Z,36.8
2022-12-17T05:39:57.631Z,36.7
2022-12-17T05:45:36.160Z,36.7
2022-12-17T05:51:14.346Z,36.6
2022-12-17T05:56:39.893Z,36.4
2022-12-17T06:02:24.902Z,36.3
2022-12-17T06:07:48.016Z,36.1
2022-12-17T06:13:25.786Z,36
2022-12-17T06:18:50.376Z,35.9
2022-12-17T06:24:12.641Z,35.7
2022-12-17T06:29:50.185Z,35.7
2022-12-17T06:35:29.478Z,35.5
2022-12-17T06:41:09.745Z,35.3
2022-12-17T06:46:52.456Z,35.2
2022-12-17T06:52:31.719Z,35.1
2022-12-17T06:58:14.231Z,34.9
2022-12-17T07:03:53.385Z,34.8
2022-12-17T07:09:31.473Z,34.7
2022-12-17T07:15:17.352Z,34.6
2022-12-17T07:20:38.936Z,34.6
2022-12-17T07:26:02.968Z,34.4
2022-12-17T07:31:45.192Z,34.4
2022-12-17T07:37:23.839Z,34.3
2022-12-17T07:43:02.422Z,34.2
2022-12-17T07:48:41.051Z,34.1
2022-12-17T07:54:17.918Z,34.1
2022-12-17T07:59:45.300Z,33.9
2022-12-17T08:05:25.519Z,33.9
2022-12-17T08:11:07.443Z,33.8
2022-12-17T08:16:20.880Z,33.6
2022-12-17T08:21:51.081Z,33.5
2022-12-17T08:27:36.551Z,33.4
2022-12-17T08:33:51.442Z,33.3
2022-12-17T08:39:28.885Z,33.2
2022-12-17T08:45:13.680Z,32.5
2022-12-17T08:50:52.351Z,31.6
2022-12-17T08:56:30.280Z,31.1
2022-12-17T09:02:09.100Z,30.8
2022-12-17T09:07:49.142Z,30.6
2022-12-17T09:13:26.690Z,30.4
2022-12-17T09:19:04.554Z,30.2
2022-12-17T09:24:44.120Z,30.1
2022-12-17T09:30:27.106Z,29.9
2022-12-17T09:36:09.075Z,29.7
2022-12-17T09:41:53.892Z,29.4
2022-12-17T09:47:21.610Z,29.3
2022-12-17T09:52:48.028Z,29.1
2022-12-17T09:58:11.314Z,29
2022-12-17T10:03:51.554Z,28.9
2022-12-17T10:09:31.498Z,28.8
2022-12-17T10:15:15.458Z,28.5
2022-12-17T10:20:53.591Z,28.3
2022-12-17T10:26:35.557Z,28.1
2022-12-17T10:32:03.025Z,28
2022-12-17T10:37:39.879Z,27.9
2022-12-17T10:43:23.624Z,27.9
2022-12-17T10:49:04.682Z,27.8
2022-12-17T10:54:49.252Z,27.8
2022-12-17T11:00:27.490Z,27.7
2022-12-17T11:05:59.890Z,27.7
2022-12-17T11:11:48.472Z,27.7
2022-12-17T11:17:35.509Z,27.7
2022-12-17T11:23:15.782Z,27.7
2022-12-17T11:28:53.404Z,27.7
2022-12-17T11:34:31.006Z,27.6
2022-12-17T11:40:19.498Z,27.6
2022-12-17T11:45:42.099Z,27.6
2022-12-17T11:51:07.875Z,27.6
2022-12-17T11:56:52.479Z,27.6
2022-12-17T12:02:38.969Z,27.6
2022-12-17T12:08:24.311Z,27.6
2022-12-17T12:14:02.448Z,27.6
2022-12-17T12:19:40.778Z,27.5
2022-12-17T12:25:20.375Z,27.5
2022-12-17T12:31:04.849Z,27.5
2022-12-17T12:36:48.135Z,27.5
2022-12-17T12:42:26.336Z,27.4
2022-12-17T12:48:04.691Z,27.4
2022-12-17T12:53:46.130Z,27.4
2022-12-17T12:59:29.624Z,27.4
2022-12-17T13:05:14.103Z,27.4
2022-12-17T13:10:41.024Z,27.4
2022-12-17T13:16:22.880Z,27.4
2022-12-17T13:22:02.037Z,27.4
2022-12-17T13:27:45.494Z,27.3
2022-12-17T13:33:14.708Z,27.3
2022-12-17T13:38:55.258Z,27.3
2022-12-17T13:44:34.369Z,27.3
2022-12-17T13:50:48.190Z,27.3
2022-12-17T13:56:27.308Z,27.3
2022-12-17T14:02:09.350Z,27.3
2022-12-17T14:08:17.350Z,27.3
2022-12-17T14:13:55.820Z,27.2
2022-12-17T14:19:36.959Z,27.2
2022-12-17T14:25:02.844Z,27.2
2022-12-17T14:31:17.612Z,27.2
2022-12-17T14:37:14.095Z,27.2
2022-12-17T14:43:11.362Z,27.1
2022-12-17T14:48:53.704Z,27.1
2022-12-17T14:54:31.437Z,27.1
2022-12-17T15:00:09.413Z,27.1
2022-12-17T15:05:54.399Z,27.1
2022-12-17T15:11:16.640Z,27.1
2022-12-17T15:16:42.819Z,27
2022-12-17T15:22:25.960Z,27.1
2022-12-17T15:27:41.159Z,27
2022-12-17T15:33:07.018Z,27
2022-12-17T15:38:48.552Z,26.9
2022-12-17T15:44:28.820Z,26.8
2022-12-17T15:50:12.738Z,26.8
2022-12-17T15:55:52.246Z,26.7
2022-12-17T16:01:16.546Z,26.6
2022-12-17T16:06:47.430Z,26.6
2022-12-17T16:12:31.216Z,26.5
2022-12-17T16:17:42.724Z,26.4
2022-12-17T16:23:25.469Z,26.4
2022-12-17T16:28:49.070Z,26.3
2022-12-17T16:34:33.904Z,26.3
2022-12-17T16:40:16.709Z,26.2
2022-12-17T16:45:55.000Z,25.9
2022-12-17T16:51:42.352Z,25.8
2022-12-17T16:57:24.425Z,25.6
2022-12-17T17:02:53.152Z,25.6
2022-12-17T17:08:31.288Z,25.5
2022-12-17T17:14:09.244Z,25.5
2022-12-17T17:20:08.814Z,25.5
2022-12-17T17:26:06.747Z,25.5
2022-12-17T17:32:25.149Z,25.5
2022-12-17T17:38:03.889Z,25.5
2022-12-17T17:43:42.941Z,25.6
2022-12-17T17:49:26.871Z,25.6
2022-12-17T17:55:40.629Z,25.6
2022-12-17T18:01:25.023Z,25.6
2022-12-17T18:07:32.679Z,25.6
2022-12-17T18:13:18.131Z,25.6
2022-12-17T18:19:13.724Z,25.6
2022-12-17T18:24:51.347Z,25.6
2022-12-17T18:30:30.086Z,25.6
2022-12-17T18:35:52.961Z,25.6
2022-12-17T18:41:35.866Z,25.6
2022-12-17T18:47:15.653Z,25.6
2022-12-17T18:53:05.545Z,25.6
2022-12-17T18:59:13.023Z,25.6
2022-12-17T19:04:52.741Z,25.6
2022-12-17T19:10:35.586Z,25.3
2022-12-17T19:16:15.145Z,25
2022-12-17T19:21:53.898Z,24.8
2022-12-17T19:27:15.969Z,24.6
2022-12-17T19:32:57.644Z,24.3
2022-12-17T19:38:41.042Z,24.1
2022-12-17T19:44:18.564Z,24
2022-12-17T19:49:57.514Z,23.9
2022-12-17T19:55:45.513Z,23.8
2022-12-17T20:01:23.464Z,23.7
2022-12-17T20:07:03.672Z,23.6
2022-12-17T20:12:42.793Z,23.6
2022-12-17T20:18:25.206Z,23.8
2022-12-17T20:24:02.908Z,25
2022-12-17T20:29:25.498Z,26.6
2022-12-17T20:34:52.214Z,27.9
2022-12-17T20:40:17.510Z,29.2
2022-12-17T20:45:59.724Z,30.1
2022-12-17T20:51:22.331Z,30.8
2022-12-17T20:57:05.523Z,31.3
2022-12-17T21:02:46.708Z,31.9
2022-12-17T21:08:24.583Z,32.4
2022-12-17T21:13:53.837Z,33
2022-12-17T21:19:09.231Z,33.4
2022-12-17T21:24:41.136Z,33.7
2022-12-17T21:29:52.629Z,33.9
2022-12-17T21:34:34.808Z,34
2022-12-17T21:40:02.829Z,34.1
2022-12-17T21:45:44.683Z,34.3
2022-12-17T21:51:29.684Z,34.3
2022-12-17T21:56:53.648Z,34.4
2022-12-17T22:02:40.806Z,34.4
2022-12-17T22:09:29.162Z,34.4
2022-12-17T22:15:57.540Z,34.4
2022-12-17T22:21:22.652Z,34.4
2022-12-17T22:26:35.450Z,34.4
2022-12-17T22:32:01.353Z,34.4
2022-12-17T22:48:04.015Z,34.3
2022-12-17T22:54:33.204Z,34.2
2022-12-17T23:01:21.163Z,34.1
2022-12-17T23:07:03.075Z,34.1
2022-12-17T23:12:41.047Z,34
2022-12-17T23:18:18.953Z,33.9
2022-12-17T23:23:44.654Z,33.9
2022-12-17T23:29:21.656Z,33.8
2022-12-17T23:34:45.108Z,33.8
2022-12-17T23:40:26.916Z,33.7
2022-12-17T23:46:05.582Z,33.6
2022-12-17T23:51:48.006Z,33.6
2022-12-17T23:57:26.860Z,33.5
